sensor_id;sensor_type;location;lat;lon;timestamp;temperature;humidity
13446;DHT22;6795;51.232;3.764;2022-11-11T00:00:59;11.30;99.90
13446;DHT22;6795;51.232;3.764;2022-11-11T00:03:29;11.30;99.90
13446;DHT22;6795;51.232;3.764;2022-11-11T00:06:02;11.30;99.90
13446;DHT22;6795;51.232;3.764;2022-11-11T00:08:31;11.30;99.90
13446;DHT22;6795;51.232;3.764;2022-11-11T00:11:00;11.30;99.90
13446;DHT22;6795;51.232;3.764;2022-11-11T00:13:32;11.30;99.90
13446;DHT22;6795;51.232;3.764;2022-11-11T00:16:05;11.30;99.90
13446;DHT22;6795;51.232;3.764;2022-11-11T00:18:35;11.30;99.90
13446;DHT22;6795;51.232;3.764;2022-11-11T00:21:21;11.30;99.90
13446;DHT22;6795;51.232;3.764;2022-11-11T00:24:19;11.30;99.90
13446;DHT22;6795;51.232;3.764;2022-11-11T00:27:05;11.30;99.90
13446;DHT22;6795;51.232;3.764;2022-11-11T00:29:34;11.20;99.90
13446;DHT22;6795;51.232;3.764;2022-11-11T00:32:04;11.20;99.90
13446;DHT22;6795;51.232;3.764;2022-11-11T00:34:53;11.20;99.90
13446;DHT22;6795;51.232;3.764;2022-11-11T00:37:43;11.20;99.90
13446;DHT22;6795;51.232;3.764;2022-11-11T00:40:12;11.20;99.90
13446;DHT22;6795;51.232;3.764;2022-11-11T00:42:40;11.20;99.90
13446;DHT22;6795;51.232;3.764;2022-11-11T00:45:10;11.30;99.90
13446;DHT22;6795;51.232;3.764;2022-11-11T00:47:38;11.30;99.90
13446;DHT22;6795;51.232;3.764;2022-11-11T00:50:27;11.30;99.90
13446;DHT22;6795;51.232;3.764;2022-11-11T00:53:15;11.30;99.90
13446;DHT22;6795;51.232;3.764;2022-11-11T00:55:49;11.30;99.90
13446;DHT22;6795;51.232;3.764;2022-11-11T00:58:18;11.20;99.90
13446;DHT22;6795;51.232;3.764;2022-11-11T01:00:46;11.30;99.90
13446;DHT22;6795;51.232;3.764;2022-11-11T01:03:16;11.20;99.90
13446;DHT22;6795;51.232;3.764;2022-11-11T01:05:48;11.20;99.90
13446;DHT22;6795;51.232;3.764;2022-11-11T01:08:17;11.20;99.90
13446;DHT22;6795;51.232;3.764;2022-11-11T01:10:45;11.20;99.90
13446;DHT22;6795;51.232;3.764;2022-11-11T01:13:17;11.20;99.90
13446;DHT22;6795;51.232;3.764;2022-11-11T01:15:47;11.20;99.90
13446;DHT22;6795;51.232;3.764;2022-11-11T01:18:19;11.20;99.90
13446;DHT22;6795;51.232;3.764;2022-11-11T01:20:58;11.20;99.90
13446;DHT22;6795;51.232;3.764;2022-11-11T01:23:26;11.20;99.90
13446;DHT22;6795;51.232;3.764;2022-11-11T01:26:00;11.20;99.90
13446;DHT22;6795;51.232;3.764;2022-11-11T01:28:29;11.20;99.90
13446;DHT22;6795;51.232;3.764;2022-11-11T01:31:03;11.10;99.90
13446;DHT22;6795;51.232;3.764;2022-11-11T01:33:34;11.10;99.90
13446;DHT22;6795;51.232;3.764;2022-11-11T01:36:06;11.00;99.90
13446;DHT22;6795;51.232;3.764;2022-11-11T01:38:38;11.10;99.90
13446;DHT22;6795;51.232;3.764;2022-11-11T01:41:12;11.00;99.90
13446;DHT22;6795;51.232;3.764;2022-11-11T01:43:58;11.00;99.90
13446;DHT22;6795;51.232;3.764;2022-11-11T01:46:31;10.90;99.90
13446;DHT22;6795;51.232;3.764;2022-11-11T01:49:14;10.90;99.90
13446;DHT22;6795;51.232;3.764;2022-11-11T01:51:51;10.90;99.90
13446;DHT22;6795;51.232;3.764;2022-11-11T01:54:29;10.90;99.90
13446;DHT22;6795;51.232;3.764;2022-11-11T01:57:04;10.90;99.90
13446;DHT22;6795;51.232;3.764;2022-11-11T01:59:36;10.90;99.90
13446;DHT22;6795;51.232;3.764;2022-11-11T02:02:10;10.90;99.90
13446;DHT22;6795;51.232;3.764;2022-11-11T02:04:41;10.90;99.90
13446;DHT22;6795;51.232;3.764;2022-11-11T02:07:39;10.90;99.90
13446;DHT22;6795;51.232;3.764;2022-11-11T02:10:09;10.90;99.90
13446;DHT22;6795;51.232;3.764;2022-11-11T02:12:37;10.90;99.90
13446;DHT22;6795;51.232;3.764;2022-11-11T02:15:23;10.90;99.90
13446;DHT22;6795;51.232;3.764;2022-11-11T02:17:51;10.90;99.90
13446;DHT22;6795;51.232;3.764;2022-11-11T02:20:25;10.90;99.90
13446;DHT22;6795;51.232;3.764;2022-11-11T02:22:57;10.90;99.90
13446;DHT22;6795;51.232;3.764;2022-11-11T02:25:30;10.90;99.90
13446;DHT22;6795;51.232;3.764;2022-11-11T02:28:04;10.80;99.90
13446;DHT22;6795;51.232;3.764;2022-11-11T02:30:33;10.80;99.90
13446;DHT22;6795;51.232;3.764;2022-11-11T02:33:02;10.80;99.90
13446;DHT22;6795;51.232;3.764;2022-11-11T02:35:32;10.70;99.90
13446;DHT22;6795;51.232;3.764;2022-11-11T02:38:04;10.70;99.90
13446;DHT22;6795;51.232;3.764;2022-11-11T02:40:38;10.70;99.90
13446;DHT22;6795;51.232;3.764;2022-11-11T02:43:27;10.70;99.90
13446;DHT22;6795;51.232;3.764;2022-11-11T02:45:56;10.70;99.90
13446;DHT22;6795;51.232;3.764;2022-11-11T02:48:25;10.70;99.90
13446;DHT22;6795;51.232;3.764;2022-11-11T02:50:54;10.70;99.90
13446;DHT22;6795;51.232;3.764;2022-11-11T02:53:23;10.70;99.90
13446;DHT22;6795;51.232;3.764;2022-11-11T02:55:53;10.70;99.90
13446;DHT22;6795;51.232;3.764;2022-11-11T02:58:21;10.70;99.90
13446;DHT22;6795;51.232;3.764;2022-11-11T03:00:50;10.70;99.90
13446;DHT22;6795;51.232;3.764;2022-11-11T03:03:18;10.70;99.90
13446;DHT22;6795;51.232;3.764;2022-11-11T03:05:47;10.70;99.90
13446;DHT22;6795;51.232;3.764;2022-11-11T03:08:15;10.70;99.90
13446;DHT22;6795;51.232;3.764;2022-11-11T03:10:44;10.70;99.90
13446;DHT22;6795;51.232;3.764;2022-11-11T03:13:14;10.70;99.90
13446;DHT22;6795;51.232;3.764;2022-11-11T03:15:42;10.70;99.90
13446;DHT22;6795;51.232;3.764;2022-11-11T03:18:11;10.70;99.90
13446;DHT22;6795;51.232;3.764;2022-11-11T03:20:38;10.70;99.90
13446;DHT22;6795;51.232;3.764;2022-11-11T03:23:23;10.70;99.90
13446;DHT22;6795;51.232;3.764;2022-11-11T03:25:52;10.60;99.90
13446;DHT22;6795;51.232;3.764;2022-11-11T03:28:25;10.60;99.90
13446;DHT22;6795;51.232;3.764;2022-11-11T03:30:54;10.60;99.90
13446;DHT22;6795;51.232;3.764;2022-11-11T03:33:28;10.60;99.90
13446;DHT22;6795;51.232;3.764;2022-11-11T03:35:57;10.60;99.90
13446;DHT22;6795;51.232;3.764;2022-11-11T03:38:25;10.60;99.90
13446;DHT22;6795;51.232;3.764;2022-11-11T03:40:55;10.60;99.90
13446;DHT22;6795;51.232;3.764;2022-11-11T03:43:26;10.60;99.90
13446;DHT22;6795;51.232;3.764;2022-11-11T03:45:56;10.60;99.90
13446;DHT22;6795;51.232;3.764;2022-11-11T03:48:26;10.60;99.90
13446;DHT22;6795;51.232;3.764;2022-11-11T03:50:55;10.50;99.90
13446;DHT22;6795;51.232;3.764;2022-11-11T03:53:23;10.50;99.90
13446;DHT22;6795;51.232;3.764;2022-11-11T03:55:52;10.50;99.90
13446;DHT22;6795;51.232;3.764;2022-11-11T03:58:20;10.40;99.90
13446;DHT22;6795;51.232;3.764;2022-11-11T04:00:50;10.40;99.90
13446;DHT22;6795;51.232;3.764;2022-11-11T04:03:19;10.40;99.90
13446;DHT22;6795;51.232;3.764;2022-11-11T04:06:07;10.40;99.90
13446;DHT22;6795;51.232;3.764;2022-11-11T04:08:53;10.40;99.90
13446;DHT22;6795;51.232;3.764;2022-11-11T04:11:41;10.40;99.90
13446;DHT22;6795;51.232;3.764;2022-11-11T04:14:12;10.30;99.90
13446;DHT22;6795;51.232;3.764;2022-11-11T04:16:59;10.40;99.90
13446;DHT22;6795;51.232;3.764;2022-11-11T04:19:28;10.40;99.90
13446;DHT22;6795;51.232;3.764;2022-11-11T04:22:13;10.40;99.90
13446;DHT22;6795;51.232;3.764;2022-11-11T04:24:42;10.40;99.90
13446;DHT22;6795;51.232;3.764;2022-11-11T04:27:28;10.40;99.90
13446;DHT22;6795;51.232;3.764;2022-11-11T04:29:56;10.40;99.90
13446;DHT22;6795;51.232;3.764;2022-11-11T04:32:24;10.40;99.90
13446;DHT22;6795;51.232;3.764;2022-11-11T04:35:11;10.40;99.90
13446;DHT22;6795;51.232;3.764;2022-11-11T04:37:44;10.30;99.90
13446;DHT22;6795;51.232;3.764;2022-11-11T04:40:15;10.30;99.90
13446;DHT22;6795;51.232;3.764;2022-11-11T04:43:01;10.30;99.90
13446;DHT22;6795;51.232;3.764;2022-11-11T04:45:29;10.30;99.90
13446;DHT22;6795;51.232;3.764;2022-11-11T04:48:01;10.20;99.90
13446;DHT22;6795;51.232;3.764;2022-11-11T04:50:31;10.20;99.90
13446;DHT22;6795;51.232;3.764;2022-11-11T04:53:00;10.20;99.90
13446;DHT22;6795;51.232;3.764;2022-11-11T04:55:28;10.20;99.90
13446;DHT22;6795;51.232;3.764;2022-11-11T04:58:15;10.20;99.90
13446;DHT22;6795;51.232;3.764;2022-11-11T05:00:44;10.20;99.90
13446;DHT22;6795;51.232;3.764;2022-11-11T05:03:15;10.10;99.90
13446;DHT22;6795;51.232;3.764;2022-11-11T05:05:47;10.10;99.90
13446;DHT22;6795;51.232;3.764;2022-11-11T05:08:34;10.10;99.90
13446;DHT22;6795;51.232;3.764;2022-11-11T05:11:22;10.10;99.90
13446;DHT22;6795;51.232;3.764;2022-11-11T05:13:50;10.10;99.90
13446;DHT22;6795;51.232;3.764;2022-11-11T05:16:39;10.10;99.90
13446;DHT22;6795;51.232;3.764;2022-11-11T05:19:27;10.10;99.90
13446;DHT22;6795;51.232;3.764;2022-11-11T05:22:15;10.10;99.90
13446;DHT22;6795;51.232;3.764;2022-11-11T05:24:45;10.10;99.90
13446;DHT22;6795;51.232;3.764;2022-11-11T05:27:31;10.10;99.90
13446;DHT22;6795;51.232;3.764;2022-11-11T05:29:59;10.00;99.90
13446;DHT22;6795;51.232;3.764;2022-11-11T05:32:27;10.10;99.90
13446;DHT22;6795;51.232;3.764;2022-11-11T05:34:57;10.00;99.90
13446;DHT22;6795;51.232;3.764;2022-11-11T05:37:26;10.10;99.90
13446;DHT22;6795;51.232;3.764;2022-11-11T05:39:55;10.00;99.90
13446;DHT22;6795;51.232;3.764;2022-11-11T05:42:23;10.00;99.90
13446;DHT22;6795;51.232;3.764;2022-11-11T05:44:51;10.00;99.90
13446;DHT22;6795;51.232;3.764;2022-11-11T05:47:20;10.00;99.90
13446;DHT22;6795;51.232;3.764;2022-11-11T05:49:48;10.00;99.90
13446;DHT22;6795;51.232;3.764;2022-11-11T05:52:18;10.00;99.90
13446;DHT22;6795;51.232;3.764;2022-11-11T05:54:46;10.00;99.90
13446;DHT22;6795;51.232;3.764;2022-11-11T05:57:14;10.00;99.90
13446;DHT22;6795;51.232;3.764;2022-11-11T05:59:43;10.00;99.90
13446;DHT22;6795;51.232;3.764;2022-11-11T06:02:11;10.00;99.90
13446;DHT22;6795;51.232;3.764;2022-11-11T06:04:40;10.00;99.90
13446;DHT22;6795;51.232;3.764;2022-11-11T06:07:08;10.00;99.90
13446;DHT22;6795;51.232;3.764;2022-11-11T06:09:38;10.00;99.90
13446;DHT22;6795;51.232;3.764;2022-11-11T06:12:06;10.00;99.90
13446;DHT22;6795;51.232;3.764;2022-11-11T06:14:34;10.00;99.90
13446;DHT22;6795;51.232;3.764;2022-11-11T06:17:03;10.00;99.90
13446;DHT22;6795;51.232;3.764;2022-11-11T06:19:33;10.00;99.90
13446;DHT22;6795;51.232;3.764;2022-11-11T06:22:02;10.00;99.90
13446;DHT22;6795;51.232;3.764;2022-11-11T06:24:30;10.00;99.90
13446;DHT22;6795;51.232;3.764;2022-11-11T06:27:00;10.00;99.90
13446;DHT22;6795;51.232;3.764;2022-11-11T06:29:27;10.00;99.90
13446;DHT22;6795;51.232;3.764;2022-11-11T06:31:55;10.00;99.90
13446;DHT22;6795;51.232;3.764;2022-11-11T06:34:26;10.00;99.90
13446;DHT22;6795;51.232;3.764;2022-11-11T06:36:54;10.00;99.90
13446;DHT22;6795;51.232;3.764;2022-11-11T06:39:22;10.00;99.90
13446;DHT22;6795;51.232;3.764;2022-11-11T06:41:50;10.00;99.90
13446;DHT22;6795;51.232;3.764;2022-11-11T06:44:21;10.00;99.90
13446;DHT22;6795;51.232;3.764;2022-11-11T06:46:49;10.00;99.90
13446;DHT22;6795;51.232;3.764;2022-11-11T06:49:18;10.00;99.90
13446;DHT22;6795;51.232;3.764;2022-11-11T06:51:48;10.00;99.90
13446;DHT22;6795;51.232;3.764;2022-11-11T06:54:16;10.00;99.90
13446;DHT22;6795;51.232;3.764;2022-11-11T06:56:46;10.00;99.90
13446;DHT22;6795;51.232;3.764;2022-11-11T06:59:15;10.00;99.90
13446;DHT22;6795;51.232;3.764;2022-11-11T07:01:44;10.00;99.90
13446;DHT22;6795;51.232;3.764;2022-11-11T07:04:13;10.00;99.90
13446;DHT22;6795;51.232;3.764;2022-11-11T07:06:41;10.00;99.90
13446;DHT22;6795;51.232;3.764;2022-11-11T07:09:10;10.00;99.90
13446;DHT22;6795;51.232;3.764;2022-11-11T07:11:38;10.00;99.90
13446;DHT22;6795;51.232;3.764;2022-11-11T07:14:07;10.00;99.90
13446;DHT22;6795;51.232;3.764;2022-11-11T07:16:35;10.00;99.90
13446;DHT22;6795;51.232;3.764;2022-11-11T07:19:05;10.00;99.90
13446;DHT22;6795;51.232;3.764;2022-11-11T07:21:33;10.00;99.90
13446;DHT22;6795;51.232;3.764;2022-11-11T07:24:01;10.00;99.90
13446;DHT22;6795;51.232;3.764;2022-11-11T07:26:30;10.00;99.90
13446;DHT22;6795;51.232;3.764;2022-11-11T07:28:58;10.00;99.90
13446;DHT22;6795;51.232;3.764;2022-11-11T07:31:26;10.00;99.90
13446;DHT22;6795;51.232;3.764;2022-11-11T07:33:55;10.00;99.90
13446;DHT22;6795;51.232;3.764;2022-11-11T07:36:25;10.00;99.90
13446;DHT22;6795;51.232;3.764;2022-11-11T07:38:53;10.00;99.90
13446;DHT22;6795;51.232;3.764;2022-11-11T07:41:22;10.00;99.90
13446;DHT22;6795;51.232;3.764;2022-11-11T07:43:50;10.10;99.90
13446;DHT22;6795;51.232;3.764;2022-11-11T07:46:19;10.00;99.90
13446;DHT22;6795;51.232;3.764;2022-11-11T07:48:47;10.10;99.90
13446;DHT22;6795;51.232;3.764;2022-11-11T07:51:15;10.00;99.90
13446;DHT22;6795;51.232;3.764;2022-11-11T07:53:45;10.10;99.90
13446;DHT22;6795;51.232;3.764;2022-11-11T07:56:13;10.10;99.90
13446;DHT22;6795;51.232;3.764;2022-11-11T07:58:41;10.10;99.90
13446;DHT22;6795;51.232;3.764;2022-11-11T08:01:10;10.10;99.90
13446;DHT22;6795;51.232;3.764;2022-11-11T08:03:38;10.10;99.90
13446;DHT22;6795;51.232;3.764;2022-11-11T08:06:16;10.10;99.90
13446;DHT22;6795;51.232;3.764;2022-11-11T08:08:46;10.10;99.90
13446;DHT22;6795;51.232;3.764;2022-11-11T08:11:15;10.10;99.90
13446;DHT22;6795;51.232;3.764;2022-11-11T08:14:04;10.10;99.90
13446;DHT22;6795;51.232;3.764;2022-11-11T08:16:31;10.10;99.90
13446;DHT22;6795;51.232;3.764;2022-11-11T08:18:59;10.10;99.90
13446;DHT22;6795;51.232;3.764;2022-11-11T08:21:28;10.10;99.90
13446;DHT22;6795;51.232;3.764;2022-11-11T08:23:58;10.00;99.90
13446;DHT22;6795;51.232;3.764;2022-11-11T08:26:46;10.10;99.90
13446;DHT22;6795;51.232;3.764;2022-11-11T08:29:15;10.10;99.90
13446;DHT22;6795;51.232;3.764;2022-11-11T08:31:43;10.10;99.90
13446;DHT22;6795;51.232;3.764;2022-11-11T08:34:12;10.10;99.90
13446;DHT22;6795;51.232;3.764;2022-11-11T08:36:40;10.10;99.90
13446;DHT22;6795;51.232;3.764;2022-11-11T08:39:10;10.10;99.90
13446;DHT22;6795;51.232;3.764;2022-11-11T08:41:38;10.10;99.90
13446;DHT22;6795;51.232;3.764;2022-11-11T08:44:08;10.20;99.90
13446;DHT22;6795;51.232;3.764;2022-11-11T08:46:39;10.20;99.90
13446;DHT22;6795;51.232;3.764;2022-11-11T08:49:07;10.20;99.90
13446;DHT22;6795;51.232;3.764;2022-11-11T08:51:37;10.20;99.90
13446;DHT22;6795;51.232;3.764;2022-11-11T08:54:12;10.10;99.90
13446;DHT22;6795;51.232;3.764;2022-11-11T08:56:40;10.20;99.90
13446;DHT22;6795;51.232;3.764;2022-11-11T08:59:09;10.20;99.90
13446;DHT22;6795;51.232;3.764;2022-11-11T09:01:37;10.30;99.90
13446;DHT22;6795;51.232;3.764;2022-11-11T09:04:06;10.30;99.90
13446;DHT22;6795;51.232;3.764;2022-11-11T09:06:56;10.40;99.90
13446;DHT22;6795;51.232;3.764;2022-11-11T09:09:26;10.40;99.90
13446;DHT22;6795;51.232;3.764;2022-11-11T09:11:54;10.50;99.90
13446;DHT22;6795;51.232;3.764;2022-11-11T09:14:23;10.50;99.90
13446;DHT22;6795;51.232;3.764;2022-11-11T09:16:51;10.50;99.90
13446;DHT22;6795;51.232;3.764;2022-11-11T09:19:19;10.60;99.90
13446;DHT22;6795;51.232;3.764;2022-11-11T09:21:49;10.60;99.90
13446;DHT22;6795;51.232;3.764;2022-11-11T09:24:18;10.50;99.90
13446;DHT22;6795;51.232;3.764;2022-11-11T09:26:48;10.60;99.90
13446;DHT22;6795;51.232;3.764;2022-11-11T09:29:17;10.50;99.90
13446;DHT22;6795;51.232;3.764;2022-11-11T09:31:45;10.50;99.90
13446;DHT22;6795;51.232;3.764;2022-11-11T09:34:14;10.50;99.90
13446;DHT22;6795;51.232;3.764;2022-11-11T09:36:42;10.60;99.90
13446;DHT22;6795;51.232;3.764;2022-11-11T09:39:10;10.70;99.90
13446;DHT22;6795;51.232;3.764;2022-11-11T09:41:50;10.70;99.90
13446;DHT22;6795;51.232;3.764;2022-11-11T09:44:40;10.70;99.90
13446;DHT22;6795;51.232;3.764;2022-11-11T09:47:13;10.60;99.90
13446;DHT22;6795;51.232;3.764;2022-11-11T09:49:54;10.70;99.90
13446;DHT22;6795;51.232;3.764;2022-11-11T09:52:29;10.70;99.90
13446;DHT22;6795;51.232;3.764;2022-11-11T09:55:01;10.70;99.90
13446;DHT22;6795;51.232;3.764;2022-11-11T09:57:34;10.80;99.90
13446;DHT22;6795;51.232;3.764;2022-11-11T10:00:09;11.00;99.90
13446;DHT22;6795;51.232;3.764;2022-11-11T10:02:51;11.00;99.90
13446;DHT22;6795;51.232;3.764;2022-11-11T10:05:23;11.10;99.90
13446;DHT22;6795;51.232;3.764;2022-11-11T10:07:56;11.20;99.90
13446;DHT22;6795;51.232;3.764;2022-11-11T10:10:30;11.20;99.90
13446;DHT22;6795;51.232;3.764;2022-11-11T10:13:07;11.20;99.90
13446;DHT22;6795;51.232;3.764;2022-11-11T10:15:49;11.20;99.90
13446;DHT22;6795;51.232;3.764;2022-11-11T10:18:28;11.20;99.90
13446;DHT22;6795;51.232;3.764;2022-11-11T10:21:07;11.20;99.90
13446;DHT22;6795;51.232;3.764;2022-11-11T10:23:39;11.30;99.90
13446;DHT22;6795;51.232;3.764;2022-11-11T10:26:15;11.30;99.90
13446;DHT22;6795;51.232;3.764;2022-11-11T10:28:49;11.40;99.90
13446;DHT22;6795;51.232;3.764;2022-11-11T10:31:21;11.50;99.90
13446;DHT22;6795;51.232;3.764;2022-11-11T10:33:53;11.60;99.90
13446;DHT22;6795;51.232;3.764;2022-11-11T10:36:25;11.60;99.90
13446;DHT22;6795;51.232;3.764;2022-11-11T10:39:04;11.60;99.90
13446;DHT22;6795;51.232;3.764;2022-11-11T10:41:36;11.70;99.90
13446;DHT22;6795;51.232;3.764;2022-11-11T10:44:19;11.80;99.90
13446;DHT22;6795;51.232;3.764;2022-11-11T10:46:57;12.00;99.90
13446;DHT22;6795;51.232;3.764;2022-11-11T10:49:31;12.00;99.90
13446;DHT22;6795;51.232;3.764;2022-11-11T10:52:05;12.10;99.90
13446;DHT22;6795;51.232;3.764;2022-11-11T10:54:39;12.30;99.90
13446;DHT22;6795;51.232;3.764;2022-11-11T10:57:14;12.40;99.90
13446;DHT22;6795;51.232;3.764;2022-11-11T10:59:51;12.50;99.90
13446;DHT22;6795;51.232;3.764;2022-11-11T11:02:23;12.70;99.90
13446;DHT22;6795;51.232;3.764;2022-11-11T11:04:59;13.00;99.90
13446;DHT22;6795;51.232;3.764;2022-11-11T11:07:33;13.20;99.90
13446;DHT22;6795;51.232;3.764;2022-11-11T11:10:07;13.40;99.90
13446;DHT22;6795;51.232;3.764;2022-11-11T11:12:42;13.40;99.90
13446;DHT22;6795;51.232;3.764;2022-11-11T11:15:17;13.70;99.90
13446;DHT22;6795;51.232;3.764;2022-11-11T11:17:53;14.10;99.90
13446;DHT22;6795;51.232;3.764;2022-11-11T11:20:23;14.20;99.90
13446;DHT22;6795;51.232;3.764;2022-11-11T11:22:53;14.40;99.90
13446;DHT22;6795;51.232;3.764;2022-11-11T11:25:25;14.50;99.90
13446;DHT22;6795;51.232;3.764;2022-11-11T11:28:05;14.70;99.90
13446;DHT22;6795;51.232;3.764;2022-11-11T11:30:35;14.80;99.90
13446;DHT22;6795;51.232;3.764;2022-11-11T11:33:05;15.00;99.90
13446;DHT22;6795;51.232;3.764;2022-11-11T11:35:36;15.00;99.90
13446;DHT22;6795;51.232;3.764;2022-11-11T11:38:06;14.70;99.90
13446;DHT22;6795;51.232;3.764;2022-11-11T11:40:45;14.60;99.90
13446;DHT22;6795;51.232;3.764;2022-11-11T11:43:32;14.70;99.90
13446;DHT22;6795;51.232;3.764;2022-11-11T11:46:04;14.60;99.90
13446;DHT22;6795;51.232;3.764;2022-11-11T11:49:01;14.70;99.90
13446;DHT22;6795;51.232;3.764;2022-11-11T11:51:40;14.70;99.90
13446;DHT22;6795;51.232;3.764;2022-11-11T11:54:23;14.90;99.90
13446;DHT22;6795;51.232;3.764;2022-11-11T11:56:55;15.00;99.90
13446;DHT22;6795;51.232;3.764;2022-11-11T11:59:30;15.10;99.90
13446;DHT22;6795;51.232;3.764;2022-11-11T12:02:09;15.00;99.90
13446;DHT22;6795;51.232;3.764;2022-11-11T12:05:01;15.10;99.90
13446;DHT22;6795;51.232;3.764;2022-11-11T12:07:41;15.20;99.90
13446;DHT22;6795;51.232;3.764;2022-11-11T12:10:21;15.00;99.90
13446;DHT22;6795;51.232;3.764;2022-11-11T12:12:57;14.80;99.90
13446;DHT22;6795;51.232;3.764;2022-11-11T12:15:33;14.50;99.90
13446;DHT22;6795;51.232;3.764;2022-11-11T12:18:26;14.50;99.90
13446;DHT22;6795;51.232;3.764;2022-11-11T12:21:05;14.50;99.90
13446;DHT22;6795;51.232;3.764;2022-11-11T12:23:50;14.60;99.90
13446;DHT22;6795;51.232;3.764;2022-11-11T12:26:24;14.70;99.90
13446;DHT22;6795;51.232;3.764;2022-11-11T12:29:03;15.00;99.90
13446;DHT22;6795;51.232;3.764;2022-11-11T12:31:45;15.00;99.90
13446;DHT22;6795;51.232;3.764;2022-11-11T12:34:25;15.10;99.90
13446;DHT22;6795;51.232;3.764;2022-11-11T12:37:04;14.80;99.90
13446;DHT22;6795;51.232;3.764;2022-11-11T12:39:50;14.90;99.90
13446;DHT22;6795;51.232;3.764;2022-11-11T12:42:29;14.80;99.90
13446;DHT22;6795;51.232;3.764;2022-11-11T12:45:09;14.60;99.90
13446;DHT22;6795;51.232;3.764;2022-11-11T12:47:51;14.50;99.90
13446;DHT22;6795;51.232;3.764;2022-11-11T12:50:27;14.40;99.90
13446;DHT22;6795;51.232;3.764;2022-11-11T12:53:09;14.60;99.90
13446;DHT22;6795;51.232;3.764;2022-11-11T12:55:50;14.70;99.90
13446;DHT22;6795;51.232;3.764;2022-11-11T12:58:29;14.60;99.90
13446;DHT22;6795;51.232;3.764;2022-11-11T13:01:17;14.60;99.90
13446;DHT22;6795;51.232;3.764;2022-11-11T13:03:57;14.60;99.90
13446;DHT22;6795;51.232;3.764;2022-11-11T13:06:46;14.50;99.90
13446;DHT22;6795;51.232;3.764;2022-11-11T13:09:32;14.70;99.90
13446;DHT22;6795;51.232;3.764;2022-11-11T13:12:08;14.50;99.90
13446;DHT22;6795;51.232;3.764;2022-11-11T13:15:02;14.50;99.90
13446;DHT22;6795;51.232;3.764;2022-11-11T13:17:31;14.50;99.90
13446;DHT22;6795;51.232;3.764;2022-11-11T13:20:03;14.50;99.90
13446;DHT22;6795;51.232;3.764;2022-11-11T13:22:33;14.50;99.90
13446;DHT22;6795;51.232;3.764;2022-11-11T13:25:05;14.50;99.90
13446;DHT22;6795;51.232;3.764;2022-11-11T13:27:39;14.60;99.90
13446;DHT22;6795;51.232;3.764;2022-11-11T13:30:35;14.60;99.90
13446;DHT22;6795;51.232;3.764;2022-11-11T13:33:09;14.50;99.90
13446;DHT22;6795;51.232;3.764;2022-11-11T13:35:42;14.60;99.90
13446;DHT22;6795;51.232;3.764;2022-11-11T13:38:23;14.60;99.90
13446;DHT22;6795;51.232;3.764;2022-11-11T13:40:55;14.50;99.90
13446;DHT22;6795;51.232;3.764;2022-11-11T13:43:28;14.50;99.90
13446;DHT22;6795;51.232;3.764;2022-11-11T13:45:58;14.50;99.90
13446;DHT22;6795;51.232;3.764;2022-11-11T13:48:30;14.50;99.90
13446;DHT22;6795;51.232;3.764;2022-11-11T13:51:20;14.50;99.90
13446;DHT22;6795;51.232;3.764;2022-11-11T13:53:49;14.50;99.90
13446;DHT22;6795;51.232;3.764;2022-11-11T13:56:24;14.60;99.90
13446;DHT22;6795;51.232;3.764;2022-11-11T13:58:54;14.60;99.90
13446;DHT22;6795;51.232;3.764;2022-11-11T14:01:23;14.60;99.90
13446;DHT22;6795;51.232;3.764;2022-11-11T14:04:01;14.60;99.90
13446;DHT22;6795;51.232;3.764;2022-11-11T14:09:58;14.30;99.90
13446;DHT22;6795;51.232;3.764;2022-11-11T14:12:38;14.00;99.90
13446;DHT22;6795;51.232;3.764;2022-11-11T14:15:34;13.90;99.90
13446;DHT22;6795;51.232;3.764;2022-11-11T14:18:08;13.70;99.90
13446;DHT22;6795;51.232;3.764;2022-11-11T14:20:38;13.60;99.90
13446;DHT22;6795;51.232;3.764;2022-11-11T14:23:23;13.60;99.90
13446;DHT22;6795;51.232;3.764;2022-11-11T14:26:20;13.60;99.90
13446;DHT22;6795;51.232;3.764;2022-11-11T14:28:53;13.40;99.90
13446;DHT22;6795;51.232;3.764;2022-11-11T14:34:51;13.30;99.90
13446;DHT22;6795;51.232;3.764;2022-11-11T14:37:31;13.20;99.90
13446;DHT22;6795;51.232;3.764;2022-11-11T14:40:01;13.10;99.90
13446;DHT22;6795;51.232;3.764;2022-11-11T14:42:45;13.00;99.90
13446;DHT22;6795;51.232;3.764;2022-11-11T14:48:50;12.90;99.90
13446;DHT22;6795;51.232;3.764;2022-11-11T14:51:45;12.90;99.90
13446;DHT22;6795;51.232;3.764;2022-11-11T14:54:31;12.80;99.90
13446;DHT22;6795;51.232;3.764;2022-11-11T14:57:05;12.70;99.90
13446;DHT22;6795;51.232;3.764;2022-11-11T14:59:34;12.60;99.90
13446;DHT22;6795;51.232;3.764;2022-11-11T15:04:38;12.50;99.90
13446;DHT22;6795;51.232;3.764;2022-11-11T15:07:21;12.40;99.90
13446;DHT22;6795;51.232;3.764;2022-11-11T15:10:15;12.30;99.90
13446;DHT22;6795;51.232;3.764;2022-11-11T15:15:55;12.00;99.90
13446;DHT22;6795;51.232;3.764;2022-11-11T15:18:50;11.90;99.90
13446;DHT22;6795;51.232;3.764;2022-11-11T15:21:27;11.90;99.90
13446;DHT22;6795;51.232;3.764;2022-11-11T15:24:09;11.80;99.90
13446;DHT22;6795;51.232;3.764;2022-11-11T15:26:46;11.70;99.90
13446;DHT22;6795;51.232;3.764;2022-11-11T15:29:50;11.70;99.90
13446;DHT22;6795;51.232;3.764;2022-11-11T15:32:32;11.60;99.90
13446;DHT22;6795;51.232;3.764;2022-11-11T15:35:18;11.40;99.90
13446;DHT22;6795;51.232;3.764;2022-11-11T15:37:53;11.30;99.90
13446;DHT22;6795;51.232;3.764;2022-11-11T15:40:23;11.00;99.90
13446;DHT22;6795;51.232;3.764;2022-11-11T15:42:55;10.80;99.90
13446;DHT22;6795;51.232;3.764;2022-11-11T15:45:27;10.60;99.90
13446;DHT22;6795;51.232;3.764;2022-11-11T15:47:58;10.50;99.90
13446;DHT22;6795;51.232;3.764;2022-11-11T15:53:00;10.10;99.90
13446;DHT22;6795;51.232;3.764;2022-11-11T15:55:35;10.00;99.90
13446;DHT22;6795;51.232;3.764;2022-11-11T15:58:09;9.90;99.90
13446;DHT22;6795;51.232;3.764;2022-11-11T16:00:38;10.00;99.90
13446;DHT22;6795;51.232;3.764;2022-11-11T16:03:13;10.00;99.90
13446;DHT22;6795;51.232;3.764;2022-11-11T16:05:42;10.20;99.90
13446;DHT22;6795;51.232;3.764;2022-11-11T16:08:17;10.20;99.90
13446;DHT22;6795;51.232;3.764;2022-11-11T16:10:54;10.10;99.90
13446;DHT22;6795;51.232;3.764;2022-11-11T16:13:26;10.10;99.90
13446;DHT22;6795;51.232;3.764;2022-11-11T16:15:59;10.10;99.90
13446;DHT22;6795;51.232;3.764;2022-11-11T16:18:39;10.00;99.90
13446;DHT22;6795;51.232;3.764;2022-11-11T16:21:12;10.00;99.90
13446;DHT22;6795;51.232;3.764;2022-11-11T16:23:43;9.90;99.90
13446;DHT22;6795;51.232;3.764;2022-11-11T16:26:13;9.90;99.90
13446;DHT22;6795;51.232;3.764;2022-11-11T16:28:44;9.80;99.90
13446;DHT22;6795;51.232;3.764;2022-11-11T16:31:28;9.70;99.90
13446;DHT22;6795;51.232;3.764;2022-11-11T16:34:00;9.60;99.90
13446;DHT22;6795;51.232;3.764;2022-11-11T16:36:28;9.40;99.90
13446;DHT22;6795;51.232;3.764;2022-11-11T16:41:53;9.30;99.90
13446;DHT22;6795;51.232;3.764;2022-11-11T16:44:33;9.20;99.90
13446;DHT22;6795;51.232;3.764;2022-11-11T16:47:04;9.00;99.90
13446;DHT22;6795;51.232;3.764;2022-11-11T16:49:36;8.90;99.90
13446;DHT22;6795;51.232;3.764;2022-11-11T16:52:10;8.90;99.90